Terminal Aerodrome Forecast
Issued by NWS

Home | Current Version | Previous Version | Text Only | Print | Product List | Glossary On
Versions: 1 2 3 4 5 6 7 8 9 10 11 12 13 14 15 16 17 18 19
000
FTUS44 KSJT 271100
TAFJCT
TAF
KJCT 271132Z 2712/2812 12005KT P6SM SCT023 OVC030
      TEMPO 2712/2714 BKN020
     FM271700 18010KT P6SM SCT040
     FM280800 15010KT P6SM OVC015=

USA.gov is the U.S. government's official web portal to all federal, state and local government web resources and services.